Time;durP1;ratioP1;P1;durP2;ratioP2;P2;SDS_P1;SDS_P2;PMS_P1;PMS_P2;Temp;Humidity;BMP_temperature;BMP_pressure;BME280_temperature;BME280_humidity;BME280_pressure;Samples;Min_cycle;Max_cycle;Signal;HPM_P1;HPM_P2
2022/07/14 00:00:21;;;;;;;10.98;6.28;;;;;;;;;;6275345;28;20405;-73
2022/07/14 00:03:24;;;;;;;10.57;5.50;;;;;;;;;;6278739;28;20256;-74
2022/07/14 00:06:26;;;;;;;;;;;;;;;;;;6274974;28;20042;-74
2022/07/14 00:09:27;;;;;;;10.23;4.68;;;;;;;;;;6278552;28;19963;-73
2022/07/14 00:12:29;;;;;;;8.07;5.25;;;;;;;;;;6277978;28;20053;-74
2022/07/14 00:15:31;;;;;;;7.30;4.45;;;;;;;;;;6277006;28;20102;-71
2022/07/14 00:18:37;;;;;;;11.65;5.03;;;;;;;;;;6275841;28;20041;-72
2022/07/14 00:21:38;;;;;;;8.30;4.65;;;;;;;;;;6271933;28;20332;-71
2022/07/14 00:24:40;;;;;;;6.15;4.57;;;;;;;;;;6271055;28;20347;-72
2022/07/14 00:27:43;;;;;;;6.32;4.85;;;;;;;;;;6278117;28;20057;-77
2022/07/14 00:30:45;;;;;;;5.97;4.30;;;;;;;;;;6277689;28;20335;-72
2022/07/14 00:33:48;;;;;;;5.10;4.07;;;;;;;;;;6274505;28;20045;-72
2022/07/14 00:36:50;;;;;;;;;;;;;;;;;;6279198;28;20112;-72
2022/07/14 00:39:57;;;;;;;9.13;4.60;;;;;;;;;;6281284;28;19917;-73
2022/07/14 00:42:59;;;;;;;7.97;4.50;;;;;;;;;;6276271;28;20049;-72
2022/07/14 00:46:00;;;;;;;7.75;4.40;;;;;;;;;;6282813;28;20045;-72
2022/07/14 00:49:04;;;;;;;8.98;4.47;;;;;;;;;;6272858;28;20087;-72
2022/07/14 00:52:05;;;;;;;;;;;;;;;;;;6273210;28;20252;-76
2022/07/14 00:55:08;;;;;;;5.72;4.03;;;;;;;;;;6274434;28;20129;-73
2022/07/14 00:58:10;;;;;;;7.68;4.25;;;;;;;;;;6271611;28;20252;-73
2022/07/14 01:01:12;;;;;;;8.25;4.32;;;;;;;;;;6271031;28;20044;-75
2022/07/14 01:04:16;;;;;;;6.82;4.28;;;;;;;;;;6269279;28;20057;-73
2022/07/14 01:07:19;;;;;;;5.85;4.18;;;;;;;;;;6275136;28;20051;-73
2022/07/14 01:10:21;;;;;;;9.98;4.47;;;;;;;;;;6277680;28;20067;-73
2022/07/14 01:13:22;;;;;;;8.13;3.88;;;;;;;;;;6277299;28;20291;-73
2022/07/14 01:16:24;;;;;;;10.90;4.63;;;;;;;;;;6275372;28;20057;-73
2022/07/14 01:19:27;;;;;;;6.35;4.25;;;;;;;;;;6266415;28;20092;-74
2022/07/14 01:22:30;;;;;;;;;;;;;;;;;;6278037;28;20049;-73
2022/07/14 01:25:32;;;;;;;6.40;4.57;;;;;;;;;;6272151;28;19928;-73
2022/07/14 01:28:34;;;;;;;8.70;5.00;;;;;;;;;;6273223;28;21009;-73
2022/07/14 01:31:35;;;;;;;6.35;4.88;;;;;;;;;;6276000;28;20237;-74
2022/07/14 01:34:37;;;;;;;7.07;4.85;;;;;;;;;;6269789;28;20241;-73
2022/07/14 01:37:40;;;;;;;8.38;5.40;;;;;;;;;;6277385;28;20232;-73
2022/07/14 01:40:42;;;;;;;7.38;5.05;;;;;;;;;;6274690;28;20052;-73
2022/07/14 01:43:43;;;;;;;7.78;4.43;;;;;;;;;;6281972;28;20052;-73
2022/07/14 01:46:45;;;;;;;9.65;4.50;;;;;;;;;;6275348;28;20049;-73
2022/07/14 01:49:47;;;;;;;6.78;4.57;;;;;;;;;;6278189;28;20067;-73
2022/07/14 01:52:50;;;;;;;8.07;4.35;;;;;;;;;;6277117;28;20060;-73
2022/07/14 01:55:52;;;;;;;6.30;4.20;;;;;;;;;;6275335;28;20057;-76
2022/07/14 01:58:53;;;;;;;7.45;4.03;;;;;;;;;;6280147;28;20036;-73
2022/07/14 02:01:55;;;;;;;16.05;4.57;;;;;;;;;;6278856;28;20323;-73
2022/07/14 02:04:57;;;;;;;5.13;4.20;;;;;;;;;;6275362;28;20056;-73
2022/07/14 02:08:00;;;;;;;6.68;4.00;;;;;;;;;;6275466;28;20056;-73
2022/07/14 02:14:20;;;;;;;7.13;4.10;;;;;;;;;;6274430;28;20049;-73
2022/07/14 02:17:22;;;;;;;6.20;4.45;;;;;;;;;;6270936;28;20060;-73
2022/07/14 02:20:25;;;;;;;6.70;4.13;;;;;;;;;;6271174;28;20103;-74
2022/07/14 02:23:28;;;;;;;9.38;4.30;;;;;;;;;;6274186;28;20057;-73
2022/07/14 02:26:29;;;;;;;6.45;3.80;;;;;;;;;;6274252;28;20044;-73
2022/07/14 02:29:32;;;;;;;4.70;4.10;;;;;;;;;;6272856;28;20057;-73
2022/07/14 02:32:35;;;;;;;4.53;3.67;;;;;;;;;;6274056;28;20344;-73
2022/07/14 02:35:37;;;;;;;9.93;4.50;;;;;;;;;;6271447;28;20061;-73
2022/07/14 02:38:40;;;;;;;6.20;3.70;;;;;;;;;;6270758;28;20053;-75
2022/07/14 02:41:42;;;;;;;7.55;4.22;;;;;;;;;;6271827;28;20053;-72
2022/07/14 02:44:43;;;;;;;5.10;4.05;;;;;;;;;;6270195;28;20049;-72
2022/07/14 02:47:45;;;;;;;6.30;4.10;;;;;;;;;;6270561;28;20923;-73
2022/07/14 02:50:47;;;;;;;7.53;4.22;;;;;;;;;;6272278;28;20275;-74
2022/07/14 02:53:50;;;;;;;4.85;3.92;;;;;;;;;;6270335;28;20236;-74
2022/07/14 02:56:51;;;;;;;6.45;4.13;;;;;;;;;;6270300;28;20057;-72
2022/07/14 02:59:53;;;;;;;5.20;4.38;;;;;;;;;;6270632;28;20094;-72
2022/07/14 03:02:55;;;;;;;6.45;4.32;;;;;;;;;;6270572;28;20056;-73
2022/07/14 03:05:56;;;;;;;6.18;4.40;;;;;;;;;;6270162;28;20110;-73
2022/07/14 03:08:59;;;;;;;6.07;4.00;;;;;;;;;;6271356;28;20049;-72
2022/07/14 03:12:01;;;;;;;5.72;4.30;;;;;;;;;;6272594;28;20054;-73
2022/07/14 03:15:03;;;;;;;6.15;4.55;;;;;;;;;;6271333;28;20344;-72
2022/07/14 03:18:05;;;;;;;6.47;4.18;;;;;;;;;;6270866;28;20091;-74
2022/07/14 03:21:07;;;;;;;5.82;4.20;;;;;;;;;;6270403;28;20109;-74
2022/07/14 03:24:11;;;;;;;6.53;4.40;;;;;;;;;;6270271;28;20052;-72
2022/07/14 03:27:12;;;;;;;;;;;;;;;;;;6275245;28;20048;-73
2022/07/14 03:30:14;;;;;;;7.45;4.63;;;;;;;;;;6268809;28;20223;-72
2022/07/14 03:33:16;;;;;;;8.90;4.23;;;;;;;;;;6269855;28;20053;-72
2022/07/14 03:36:20;;;;;;;6.90;4.20;;;;;;;;;;6269734;28;20079;-73
2022/07/14 03:39:23;;;;;;;4.65;4.25;;;;;;;;;;6270959;28;20045;-72
2022/07/14 03:42:24;;;;;;;5.22;3.75;;;;;;;;;;6271238;28;20057;-72
2022/07/14 03:45:26;;;;;;;9.93;4.15;;;;;;;;;;6267878;28;20062;-73
2022/07/14 03:48:28;;;;;;;6.75;3.90;;;;;;;;;;6270783;28;20055;-72
2022/07/14 03:51:29;;;;;;;8.57;4.13;;;;;;;;;;6268090;28;20099;-72
2022/07/14 03:54:32;;;;;;;11.40;4.88;;;;;;;;;;6270469;28;20102;-72
2022/07/14 03:57:34;;;;;;;7.40;4.20;;;;;;;;;;6271354;28;20111;-72
2022/07/14 04:00:36;;;;;;;11.77;4.40;;;;;;;;;;6270480;28;20375;-74
2022/07/14 04:03:38;;;;;;;10.32;4.60;;;;;;;;;;6267288;28;20288;-72
2022/07/14 04:06:39;;;;;;;5.78;4.55;;;;;;;;;;6269845;28;20112;-73
2022/07/14 04:09:42;;;;;;;7.25;4.43;;;;;;;;;;6272464;28;20328;-72
2022/07/14 04:12:44;;;;;;;5.55;4.32;;;;;;;;;;6271974;28;20328;-73
2022/07/14 04:15:46;;;;;;;6.18;4.43;;;;;;;;;;6271688;28;20282;-73
2022/07/14 04:18:48;;;;;;;5.80;4.18;;;;;;;;;;6269947;28;20209;-75
2022/07/14 04:21:49;;;;;;;6.68;4.57;;;;;;;;;;6271008;28;20127;-73
2022/07/14 04:24:52;;;;;;;13.07;4.38;;;;;;;;;;6268103;28;20056;-73
2022/07/14 04:27:54;;;;;;;7.45;4.18;;;;;;;;;;6269937;28;20228;-72
2022/07/14 04:30:56;;;;;;;8.48;4.30;;;;;;;;;;6269279;28;20065;-78
2022/07/14 04:33:58;;;;;;;4.95;3.97;;;;;;;;;;6268282;28;20249;-73
2022/07/14 04:36:59;;;;;;;5.82;4.15;;;;;;;;;;6268372;28;20067;-73
2022/07/14 04:40:03;;;;;;;10.85;4.20;;;;;;;;;;6266735;28;20068;-73
2022/07/14 04:43:05;;;;;;;7.05;4.68;;;;;;;;;;6270533;28;20055;-74
2022/07/14 04:46:08;;;;;;;7.85;4.20;;;;;;;;;;6267823;28;20045;-74
2022/07/14 04:52:29;;;;;;;7.90;4.85;;;;;;;;;;6270203;28;19917;-73
2022/07/14 04:55:32;;;;;;;7.88;4.38;;;;;;;;;;6269760;28;20061;-73
2022/07/14 04:58:33;;;;;;;5.70;4.47;;;;;;;;;;6271376;28;20229;-74
2022/07/14 05:01:35;;;;;;;5.75;4.60;;;;;;;;;;6270601;28;20401;-74
2022/07/14 05:04:37;;;;;;;10.68;6.35;;;;;;;;;;6269008;28;20051;-72
2022/07/14 05:07:39;;;;;;;13.70;5.20;;;;;;;;;;6267137;28;20080;-74
2022/07/14 05:10:42;;;;;;;5.85;4.75;;;;;;;;;;6271589;28;20053;-73
2022/07/14 05:13:43;;;;;;;5.38;3.97;;;;;;;;;;6267288;28;20061;-74
2022/07/14 05:16:45;;;;;;;9.25;4.78;;;;;;;;;;6267984;28;20077;-73
2022/07/14 05:19:47;;;;;;;7.97;4.60;;;;;;;;;;6267340;28;20312;-74
2022/07/14 05:22:49;;;;;;;7.20;4.70;;;;;;;;;;6267537;28;20052;-74
2022/07/14 05:25:52;;;;;;;10.77;4.95;;;;;;;;;;6270026;28;20343;-73
2022/07/14 05:28:53;;;;;;;9.30;4.68;;;;;;;;;;6266788;28;20041;-74
2022/07/14 05:31:55;;;;;;;5.55;4.47;;;;;;;;;;6268749;28;20060;-73
2022/07/14 05:34:58;;;;;;;7.18;5.05;;;;;;;;;;6269407;28;20102;-74
2022/07/14 05:38:00;;;;;;;6.60;5.20;;;;;;;;;;6269743;28;20107;-73
2022/07/14 05:41:03;;;;;;;8.98;5.20;;;;;;;;;;6269241;28;20049;-73
2022/07/14 05:44:05;;;;;;;7.90;4.97;;;;;;;;;;6265903;28;20053;-73
2022/07/14 05:47:07;;;;;;;8.13;5.15;;;;;;;;;;6272508;28;20044;-77
2022/07/14 05:50:09;;;;;;;10.55;5.10;;;;;;;;;;6268209;28;20049;-73
2022/07/14 05:53:11;;;;;;;5.63;4.55;;;;;;;;;;6270312;28;20049;-73
2022/07/14 05:56:16;;;;;;;8.98;4.15;;;;;;;;;;6274506;28;20091;-73
2022/07/14 05:59:18;;;;;;;6.38;4.80;;;;;;;;;;6269250;28;20235;-75
2022/07/14 06:02:19;;;;;;;9.40;5.45;;;;;;;;;;6272922;28;20344;-74
2022/07/14 06:05:21;;;;;;;9.13;5.28;;;;;;;;;;6277998;28;20336;-76
2022/07/14 06:08:23;;;;;;;6.80;4.50;;;;;;;;;;6275638;28;20224;-76
2022/07/14 06:11:26;;;;;;;7.45;5.03;;;;;;;;;;6271925;28;20067;-79
2022/07/14 06:14:27;;;;;;;16.25;4.65;;;;;;;;;;6275657;28;20426;-76
2022/07/14 06:17:30;;;;;;;10.45;5.03;;;;;;;;;;6271559;28;20096;-76
2022/07/14 06:20:31;;;;;;;7.75;5.20;;;;;;;;;;6269781;28;20060;-77
2022/07/14 06:23:33;;;;;;;14.38;5.50;;;;;;;;;;6273730;28;20278;-77
2022/07/14 06:26:36;;;;;;;11.38;5.78;;;;;;;;;;6270195;28;20056;-75
2022/07/14 06:29:38;;;;;;;9.98;5.18;;;;;;;;;;6271756;28;20052;-75
2022/07/14 06:32:41;;;;;;;13.52;5.72;;;;;;;;;;6271635;28;20057;-76
2022/07/14 06:35:43;;;;;;;9.13;6.23;;;;;;;;;;6274004;28;20056;-75
2022/07/14 06:38:44;;;;;;;11.32;6.97;;;;;;;;;;6275955;28;20071;-76
2022/07/14 06:41:47;;;;;;;10.60;5.93;;;;;;;;;;6271165;28;20045;-77
2022/07/14 06:44:49;;;;;;;14.60;7.05;;;;;;;;;;6271406;28;20046;-80
2022/07/14 06:47:51;;;;;;;12.85;6.80;;;;;;;;;;6269773;28;20053;-77
2022/07/14 06:50:52;;;;;;;6.88;6.18;;;;;;;;;;6275868;28;20059;-76
2022/07/14 06:53:54;;;;;;;9.50;6.03;;;;;;;;;;6272127;28;20355;-78
2022/07/14 06:56:57;;;;;;;7.65;5.63;;;;;;;;;;6271375;28;20072;-75
2022/07/14 06:59:59;;;;;;;14.90;5.43;;;;;;;;;;6273817;28;20056;-76
2022/07/14 07:03:00;;;;;;;12.63;4.90;;;;;;;;;;6271537;28;20061;-81
2022/07/14 07:09:21;;;;;;;11.13;4.82;;;;;;;;;;6273778;28;20061;-75
2022/07/14 07:12:24;;;;;;;10.10;4.80;;;;;;;;;;6270890;28;20600;-75
2022/07/14 07:15:26;;;;;;;11.75;4.63;;;;;;;;;;6271615;28;20053;-74
2022/07/14 07:18:28;;;;;;;9.23;5.28;;;;;;;;;;6272614;28;20349;-75
2022/07/14 07:21:30;;;;;;;10.95;5.45;;;;;;;;;;6270712;28;20343;-75
2022/07/14 07:24:31;;;;;;;9.38;4.90;;;;;;;;;;6271075;28;20390;-75
2022/07/14 07:27:35;;;;;;;10.93;6.22;;;;;;;;;;6272626;28;20069;-74
2022/07/14 07:30:36;;;;;;;11.25;5.13;;;;;;;;;;6271972;28;20061;-83
2022/07/14 07:33:38;;;;;;;8.25;4.47;;;;;;;;;;6277798;28;20060;-75
2022/07/14 07:36:40;;;;;;;12.23;4.65;;;;;;;;;;6268635;28;20327;-75
2022/07/14 07:39:42;;;;;;;8.43;4.70;;;;;;;;;;6262543;28;20287;-77
2022/07/14 07:42:44;;;;;;;8.68;5.03;;;;;;;;;;6269580;28;20052;-80
2022/07/14 07:45:46;;;;;;;;;;;;;;;;;;6274993;28;20391;-75
2022/07/14 07:48:48;;;;;;;9.00;4.72;;;;;;;;;;6267067;28;19928;-74
2022/07/14 07:51:49;;;;;;;8.07;3.70;;;;;;;;;;6272556;28;20053;-75
2022/07/14 07:54:51;;;;;;;7.50;4.95;;;;;;;;;;6270843;28;20052;-82
2022/07/14 07:57:54;;;;;;;14.02;4.93;;;;;;;;;;6270453;28;20064;-75
2022/07/14 08:00:56;;;;;;;7.03;3.80;;;;;;;;;;6268084;28;20045;-73
2022/07/14 08:03:57;;;;;;;6.72;3.80;;;;;;;;;;6267606;28;20398;-77
2022/07/14 08:06:59;;;;;;;6.75;4.10;;;;;;;;;;6267751;28;20075;-79
2022/07/14 08:10:01;;;;;;;6.22;3.75;;;;;;;;;;6269338;28;20053;-76
2022/07/14 08:13:04;;;;;;;5.82;3.67;;;;;;;;;;6267099;28;20043;-74
2022/07/14 08:16:06;;;;;;;7.57;3.58;;;;;;;;;;6267414;28;20336;-74
2022/07/14 08:19:08;;;;;;;8.27;4.45;;;;;;;;;;6271138;28;20048;-74
2022/07/14 08:22:10;;;;;;;9.02;4.38;;;;;;;;;;6265815;28;20106;-75
2022/07/14 08:25:11;;;;;;;8.05;3.60;;;;;;;;;;6267694;28;20052;-78
2022/07/14 08:28:15;;;;;;;7.47;3.97;;;;;;;;;;6271920;28;20056;-78
2022/07/14 08:31:17;;;;;;;4.80;3.40;;;;;;;;;;6268500;28;20056;-76
2022/07/14 08:34:18;;;;;;;5.17;3.30;;;;;;;;;;6270562;28;20073;-79
2022/07/14 08:37:20;;;;;;;4.53;3.10;;;;;;;;;;6270518;28;20045;-76
2022/07/14 08:40:24;;;;;;;7.28;3.33;;;;;;;;;;6267585;28;20053;-78
2022/07/14 08:43:28;;;;;;;4.35;3.20;;;;;;;;;;6270814;28;20236;-81
2022/07/14 08:46:30;;;;;;;7.80;4.22;;;;;;;;;;6272965;28;20252;-81
2022/07/14 08:49:32;;;;;;;7.93;3.30;;;;;;;;;;6268626;28;20182;-77
2022/07/14 08:52:34;;;;;;;5.38;3.03;;;;;;;;;;6270531;28;20052;-84
2022/07/14 08:55:36;;;;;;;4.65;2.92;;;;;;;;;;6269433;28;20075;-79
2022/07/14 08:58:39;;;;;;;10.77;3.33;;;;;;;;;;6271353;28;21105;-86
2022/07/14 09:01:45;;;;;;;11.23;3.55;;;;;;;;;;6271103;28;21075;-77
2022/07/14 09:04:47;;;;;;;6.72;3.72;;;;;;;;;;6268265;28;20069;-77
2022/07/14 09:07:55;;;;;;;5.15;3.08;;;;;;;;;;6270633;28;20056;-83
2022/07/14 09:10:57;;;;;;;5.70;3.25;;;;;;;;;;6271747;28;20059;-78
2022/07/14 09:14:10;;;;;;;4.93;2.93;;;;;;;;;;6269883;28;20052;-78
2022/07/14 09:17:16;;;;;;;7.50;3.03;;;;;;;;;;6274106;28;20045;-76
2022/07/14 09:20:17;;;;;;;8.80;3.13;;;;;;;;;;6270538;28;20061;-77
2022/07/14 09:23:27;;;;;;;7.37;3.13;;;;;;;;;;6266383;28;21325;-77
2022/07/14 09:26:29;;;;;;;7.47;3.38;;;;;;;;;;6266399;28;20467;-81
2022/07/14 09:29:34;;;;;;;5.93;3.17;;;;;;;;;;6270584;28;20099;-74
2022/07/14 09:32:46;;;;;;;5.35;2.67;;;;;;;;;;6276638;28;20069;-77
2022/07/14 09:35:47;;;;;;;8.88;4.60;;;;;;;;;;6273139;28;20110;-79
2022/07/14 09:38:49;;;;;;;8.02;3.33;;;;;;;;;;6274169;28;20250;-77
2022/07/14 09:41:54;;;;;;;8.95;3.65;;;;;;;;;;6273495;28;20141;-77
2022/07/14 09:45:10;;;;;;;6.07;3.25;;;;;;;;;;6244357;28;20052;-76
2022/07/14 09:48:13;;;;;;;10.90;3.40;;;;;;;;;;6276858;28;20057;-75
2022/07/14 09:51:16;;;;;;;8.25;3.42;;;;;;;;;;6275716;28;20061;-81
2022/07/14 09:54:39;;;;;;;5.40;3.35;;;;;;;;;;6271951;28;20059;-76
2022/07/14 09:57:41;;;;;;;5.72;3.08;;;;;;;;;;6276008;28;20071;-75
2022/07/14 10:00:54;;;;;;;7.97;3.40;;;;;;;;;;6271738;28;20350;-79
2022/07/14 10:03:56;;;;;;;6.15;3.88;;;;;;;;;;6271081;28;20571;-75
2022/07/14 10:06:59;;;;;;;10.18;3.83;;;;;;;;;;6274000;28;20069;-75
2022/07/14 10:10:04;;;;;;;5.97;3.67;;;;;;;;;;6273852;28;20048;-76
2022/07/14 10:13:06;;;;;;;7.32;3.85;;;;;;;;;;6271924;28;20053;-75
2022/07/14 10:16:09;;;;;;;12.83;4.03;;;;;;;;;;6270730;28;20053;-75
2022/07/14 10:19:12;;;;;;;7.72;3.83;;;;;;;;;;6272755;28;20475;-77
2022/07/14 10:22:15;;;;;;;5.80;3.20;;;;;;;;;;6272186;28;20056;-74
2022/07/14 10:25:17;;;;;;;7.18;3.55;;;;;;;;;;6274524;28;20123;-75
2022/07/14 10:28:19;;;;;;;11.73;4.38;;;;;;;;;;6270806;28;20516;-79
2022/07/14 10:31:29;;;;;;;7.95;3.90;;;;;;;;;;6274964;28;20088;-77
2022/07/14 10:34:36;;;;;;;8.00;4.65;;;;;;;;;;6275968;28;20083;-80
2022/07/14 10:37:45;;;;;;;8.05;4.00;;;;;;;;;;6274644;28;20282;-75
2022/07/14 10:40:50;;;;;;;7.72;5.68;;;;;;;;;;6272210;28;20056;-75
2022/07/14 10:44:02;;;;;;;7.85;4.07;;;;;;;;;;6271931;28;20075;-76
2022/07/14 10:47:09;;;;;;;6.60;3.88;;;;;;;;;;6273185;28;20137;-75
2022/07/14 10:50:12;;;;;;;6.13;4.63;;;;;;;;;;6274131;28;20048;-80
2022/07/14 10:53:14;;;;;;;5.45;4.38;;;;;;;;;;6272311;28;20049;-74
2022/07/14 10:56:25;;;;;;;8.48;4.55;;;;;;;;;;6272622;28;20334;-77
2022/07/14 10:59:31;;;;;;;8.20;5.35;;;;;;;;;;6272029;28;20135;-76
2022/07/14 11:02:38;;;;;;;10.25;6.05;;;;;;;;;;6272519;28;20209;-83
2022/07/14 11:06:12;;;;;;;6.45;4.32;;;;;;;;;;6271042;28;20053;-76
2022/07/14 11:09:39;;;;;;;6.15;3.83;;;;;;;;;;6272025;28;20060;-81
2022/07/14 11:13:09;;;;;;;7.95;3.70;;;;;;;;;;6277053;28;20114;-82
2022/07/14 11:16:10;;;;;;;8.25;3.80;;;;;;;;;;6272659;28;20056;-78
2022/07/14 11:19:23;;;;;;;6.33;3.87;;;;;;;;;;6274728;28;20061;-75
2022/07/14 11:22:25;;;;;;;5.20;4.05;;;;;;;;;;6271699;28;20671;-75
2022/07/14 11:25:28;;;;;;;5.67;4.57;;;;;;;;;;6267908;28;20052;-75
2022/07/14 11:28:34;;;;;;;7.68;4.72;;;;;;;;;;6270576;28;20462;-73
2022/07/14 11:31:46;;;;;;;7.10;4.47;;;;;;;;;;6273860;28;20044;-74
2022/07/14 11:38:24;;;;;;;5.68;4.18;;;;;;;;;;6276776;28;20119;-73
2022/07/14 11:41:42;;;;;;;6.05;4.00;;;;;;;;;;6277198;28;20044;-75
2022/07/14 11:44:45;;;;;;;5.65;3.75;;;;;;;;;;6276719;28;20324;-75
2022/07/14 11:47:50;;;;;;;6.35;3.92;;;;;;;;;;6271173;28;20056;-77
2022/07/14 11:50:53;;;;;;;10.80;4.50;;;;;;;;;;6268329;28;20049;-75
2022/07/14 11:53:57;;;;;;;6.65;4.13;;;;;;;;;;6264887;28;20091;-73
2022/07/14 11:57:02;;;;;;;5.93;4.88;;;;;;;;;;6266612;28;20072;-74
2022/07/14 12:00:08;;;;;;;8.68;5.40;;;;;;;;;;6267502;28;20095;-77
2022/07/14 12:03:10;;;;;;;8.60;4.53;;;;;;;;;;6265609;28;20171;-76
2022/07/14 12:06:13;;;;;;;6.33;4.90;;;;;;;;;;6266460;28;20057;-77
2022/07/14 12:09:17;;;;;;;10.48;5.35;;;;;;;;;;6274029;28;20060;-76
2022/07/14 12:12:20;;;;;;;8.98;5.05;;;;;;;;;;6276222;28;20100;-76
2022/07/14 12:15:23;;;;;;;12.70;5.35;;;;;;;;;;6275529;28;20048;-75
2022/07/14 12:18:30;;;;;;;14.10;5.35;;;;;;;;;;6274986;28;20075;-75
2022/07/14 12:21:34;;;;;;;6.13;3.97;;;;;;;;;;6273625;28;20053;-74
2022/07/14 12:24:35;;;;;;;11.15;5.65;;;;;;;;;;6272982;28;20092;-77
2022/07/14 12:27:37;;;;;;;10.95;4.90;;;;;;;;;;6276250;28;20229;-79
2022/07/14 12:30:44;;;;;;;10.18;4.78;;;;;;;;;;6278501;28;20056;-76
2022/07/14 12:33:46;;;;;;;11.82;5.00;;;;;;;;;;6272473;28;20060;-76
2022/07/14 12:36:49;;;;;;;8.80;5.57;;;;;;;;;;6270601;28;20132;-77
2022/07/14 12:39:51;;;;;;;10.57;5.82;;;;;;;;;;6274901;28;20056;-76
2022/07/14 12:42:53;;;;;;;10.75;5.00;;;;;;;;;;6271694;28;20053;-82
2022/07/14 12:46:05;;;;;;;8.15;6.35;;;;;;;;;;6269280;28;20059;-75
2022/07/14 12:49:08;;;;;;;11.07;6.00;;;;;;;;;;6271398;28;20108;-75
2022/07/14 12:52:11;;;;;;;7.63;4.40;;;;;;;;;;6270827;28;20052;-76
2022/07/14 12:55:31;;;;;;;7.30;4.32;;;;;;;;;;6267191;28;20064;-75
2022/07/14 12:58:34;;;;;;;8.48;4.35;;;;;;;;;;6271215;28;20064;-75
2022/07/14 13:01:45;;;;;;;8.23;3.85;;;;;;;;;;6267768;28;20056;-75
2022/07/14 13:04:49;;;;;;;8.57;5.50;;;;;;;;;;6272570;28;20044;-77
2022/07/14 13:07:52;;;;;;;7.40;4.75;;;;;;;;;;6273589;28;20060;-74
2022/07/14 13:10:57;;;;;;;7.38;4.55;;;;;;;;;;6269223;28;20053;-73
2022/07/14 13:14:00;;;;;;;6.03;4.57;;;;;;;;;;6272581;28;20060;-75
2022/07/14 13:17:02;;;;;;;9.30;4.80;;;;;;;;;;6269488;28;20059;-74
2022/07/14 13:20:04;;;;;;;5.68;4.32;;;;;;;;;;6272434;28;20098;-78
2022/07/14 13:23:07;;;;;;;7.03;4.70;;;;;;;;;;6267993;28;20362;-76
2022/07/14 13:26:14;;;;;;;5.07;4.07;;;;;;;;;;6267996;28;20053;-82
2022/07/14 13:29:16;;;;;;;4.80;3.80;;;;;;;;;;6268910;28;20053;-76
2022/07/14 13:32:19;;;;;;;6.53;3.92;;;;;;;;;;6270843;28;21577;-76
2022/07/14 13:35:21;;;;;;;7.85;4.00;;;;;;;;;;6272155;28;20060;-81
2022/07/14 13:38:24;;;;;;;5.13;4.28;;;;;;;;;;6266270;28;20060;-75
2022/07/14 13:41:26;;;;;;;7.10;3.75;;;;;;;;;;6276788;28;20052;-78
2022/07/14 13:44:28;;;;;;;8.23;3.90;;;;;;;;;;6268884;28;20064;-81
2022/07/14 13:47:30;;;;;;;7.82;4.05;;;;;;;;;;6270716;28;20067;-78
2022/07/14 13:53:52;;;;;;;5.93;4.40;;;;;;;;;;6267252;28;20049;-78
2022/07/14 13:56:54;;;;;;;6.63;4.10;;;;;;;;;;6268574;28;20746;-77
2022/07/14 13:59:57;;;;;;;5.15;4.40;;;;;;;;;;6252206;28;20130;-77
2022/07/14 14:06:18;;;;;;;6.05;4.07;;;;;;;;;;6266872;28;20065;-82
2022/07/14 14:09:22;;;;;;;4.03;3.60;;;;;;;;;;6268772;28;20264;-82
2022/07/14 14:12:24;;;;;;;7.55;4.10;;;;;;;;;;6264593;28;20500;-76
2022/07/14 14:15:26;;;;;;;5.85;3.90;;;;;;;;;;6267557;28;20055;-76
2022/07/14 14:18:30;;;;;;;6.75;3.80;;;;;;;;;;6265958;28;20118;-75
2022/07/14 14:21:34;;;;;;;6.57;3.80;;;;;;;;;;6265918;28;20073;-76
2022/07/14 14:24:37;;;;;;;6.88;3.63;;;;;;;;;;6270181;28;20247;-76
2022/07/14 14:27:39;;;;;;;3.72;3.40;;;;;;;;;;6266808;28;20060;-77
2022/07/14 14:30:41;;;;;;;;;;;;;;;;;;6266758;28;20053;-77
2022/07/14 14:33:43;;;;;;;5.00;3.65;;;;;;;;;;6265563;28;20096;-74
2022/07/14 14:36:44;;;;;;;;;;;;;;;;;;6262915;28;20059;-76
2022/07/14 14:39:47;;;;;;;4.50;3.30;;;;;;;;;;6266539;28;19925;-77
2022/07/14 14:42:50;;;;;;;8.13;3.53;;;;;;;;;;6266809;28;20479;-76
2022/07/14 14:45:51;;;;;;;4.30;3.70;;;;;;;;;;6267985;28;20056;-73
2022/07/14 14:48:55;;;;;;;5.70;3.78;;;;;;;;;;6268062;28;20232;-73
2022/07/14 14:51:57;;;;;;;6.03;3.70;;;;;;;;;;6265153;28;20057;-74
2022/07/14 14:55:00;;;;;;;5.72;3.63;;;;;;;;;;6271846;28;20056;-74
2022/07/14 14:58:02;;;;;;;5.40;4.35;;;;;;;;;;6273200;28;20350;-73
2022/07/14 15:01:04;;;;;;;6.90;3.80;;;;;;;;;;6273315;28;20060;-76
2022/07/14 15:04:06;;;;;;;10.02;4.03;;;;;;;;;;6274900;28;20206;-76
2022/07/14 15:07:07;;;;;;;4.47;4.00;;;;;;;;;;6272775;28;20056;-76
2022/07/14 15:10:12;;;;;;;5.95;4.10;;;;;;;;;;6270715;28;20383;-74
2022/07/14 15:13:14;;;;;;;7.88;3.90;;;;;;;;;;6275798;28;20051;-73
2022/07/14 15:16:15;;;;;;;4.88;4.15;;;;;;;;;;6274523;28;20244;-74
2022/07/14 15:19:17;;;;;;;6.00;3.60;;;;;;;;;;6265731;28;20367;-74
2022/07/14 15:22:19;;;;;;;5.38;3.75;;;;;;;;;;6267414;28;20340;-74
2022/07/14 15:25:22;;;;;;;3.88;3.47;;;;;;;;;;6264870;28;20219;-74
2022/07/14 15:28:23;;;;;;;10.55;3.45;;;;;;;;;;6266865;28;20049;-73
2022/07/14 15:31:25;;;;;;;3.80;3.40;;;;;;;;;;6261717;28;20073;-73
2022/07/14 15:34:27;;;;;;;4.78;3.25;;;;;;;;;;6266904;28;20056;-73
2022/07/14 15:37:29;;;;;;;3.92;3.33;;;;;;;;;;6264503;28;20049;-73
2022/07/14 15:43:51;;;;;;;3.47;3.15;;;;;;;;;;6261346;28;20120;-73
2022/07/14 15:46:53;;;;;;;7.28;3.80;;;;;;;;;;6264922;28;20052;-74
2022/07/14 15:49:55;;;;;;;5.10;3.20;;;;;;;;;;6259619;28;20087;-72
2022/07/14 15:52:56;;;;;;;7.57;3.03;;;;;;;;;;6262320;28;20227;-73
2022/07/14 15:55:59;;;;;;;4.55;3.53;;;;;;;;;;6261045;28;20056;-75
2022/07/14 15:59:01;;;;;;;4.13;3.15;;;;;;;;;;6262749;28;20095;-75
2022/07/14 16:02:03;;;;;;;3.30;2.83;;;;;;;;;;6260494;28;20449;-73
2022/07/14 16:05:05;;;;;;;4.00;3.17;;;;;;;;;;6265992;28;20056;-72
2022/07/14 16:08:09;;;;;;;4.90;3.35;;;;;;;;;;6261833;28;20115;-73
2022/07/14 16:11:12;;;;;;;4.78;3.20;;;;;;;;;;6265483;28;20045;-73
2022/07/14 16:14:13;;;;;;;4.25;3.40;;;;;;;;;;6262092;28;20053;-73
2022/07/14 16:17:15;;;;;;;3.97;3.00;;;;;;;;;;6262017;28;20057;-73
2022/07/14 16:20:18;;;;;;;8.13;3.50;;;;;;;;;;6262185;28;20467;-73
2022/07/14 16:23:19;;;;;;;5.43;3.63;;;;;;;;;;6260866;28;20694;-74
2022/07/14 16:26:22;;;;;;;4.68;3.20;;;;;;;;;;6261940;28;20067;-72
2022/07/14 16:29:24;;;;;;;5.07;3.25;;;;;;;;;;6262045;28;20064;-72
2022/07/14 16:32:26;;;;;;;5.73;3.80;;;;;;;;;;6271194;28;20049;-74
2022/07/14 16:35:27;;;;;;;6.10;3.58;;;;;;;;;;6269762;28;20458;-74
2022/07/14 16:38:29;;;;;;;3.70;3.13;;;;;;;;;;6267490;28;20702;-73
2022/07/14 16:41:33;;;;;;;3.60;3.30;;;;;;;;;;6270114;28;20339;-73
2022/07/14 16:44:35;;;;;;;4.13;3.70;;;;;;;;;;6272547;28;20587;-75
2022/07/14 16:47:37;;;;;;;4.55;3.25;;;;;;;;;;6269709;28;20052;-73
2022/07/14 16:50:38;;;;;;;5.10;4.13;;;;;;;;;;6267287;28;20335;-75
2022/07/14 16:53:40;;;;;;;4.07;3.63;;;;;;;;;;6268816;28;20223;-72
2022/07/14 16:56:44;;;;;;;5.28;3.40;;;;;;;;;;6272402;28;20479;-73
2022/07/14 16:59:46;;;;;;;7.70;4.20;;;;;;;;;;6269272;28;20048;-73
2022/07/14 17:02:48;;;;;;;5.00;3.90;;;;;;;;;;6269771;28;20053;-76
2022/07/14 17:09:09;;;;;;;6.45;3.40;;;;;;;;;;6271491;28;20080;-77
2022/07/14 17:12:12;;;;;;;7.07;3.37;;;;;;;;;;6270222;28;20213;-74
2022/07/14 17:15:14;;;;;;;5.70;3.53;;;;;;;;;;6269834;28;20540;-74
2022/07/14 17:18:15;;;;;;;4.65;3.55;;;;;;;;;;6266117;28;20052;-73
2022/07/14 17:21:17;;;;;;;4.93;3.30;;;;;;;;;;6269237;28;20060;-74
2022/07/14 17:24:19;;;;;;;4.27;3.40;;;;;;;;;;6270910;28;20053;-74
2022/07/14 17:27:22;;;;;;;4.33;3.47;;;;;;;;;;6269847;28;20468;-76
2022/07/14 17:30:23;;;;;;;3.70;3.35;;;;;;;;;;6270053;28;20049;-74
2022/07/14 17:33:27;;;;;;;3.40;3.10;;;;;;;;;;6269666;28;20072;-74
2022/07/14 17:36:29;;;;;;;6.30;3.55;;;;;;;;;;6267937;28;20083;-75
2022/07/14 17:39:31;;;;;;;5.53;3.25;;;;;;;;;;6266592;28;20349;-73
2022/07/14 17:42:34;;;;;;;5.87;3.90;;;;;;;;;;6265909;28;20057;-74
2022/07/14 17:45:36;;;;;;;4.13;3.50;;;;;;;;;;6268414;28;20053;-74
2022/07/14 17:48:38;;;;;;;7.03;3.88;;;;;;;;;;6268058;28;20048;-74
2022/07/14 17:54:58;;;;;;;3.50;3.20;;;;;;;;;;6263630;28;20474;-75
2022/07/14 17:58:01;;;;;;;4.22;3.20;;;;;;;;;;6271339;28;20339;-75
2022/07/14 18:01:03;;;;;;;3.63;3.33;;;;;;;;;;6270052;28;20087;-73
2022/07/14 18:04:05;;;;;;;4.10;3.50;;;;;;;;;;6268044;28;20053;-76
2022/07/14 18:07:07;;;;;;;4.15;3.22;;;;;;;;;;6268583;28;20342;-74
2022/07/14 18:10:09;;;;;;;3.80;3.50;;;;;;;;;;6275359;28;20063;-74
2022/07/14 18:13:12;;;;;;;4.82;3.17;;;;;;;;;;6273136;28;20060;-75
2022/07/14 18:16:15;;;;;;;4.47;3.35;;;;;;;;;;6277010;28;20116;-77
2022/07/14 18:19:17;;;;;;;4.10;3.70;;;;;;;;;;6275771;28;20056;-73
2022/07/14 18:22:20;;;;;;;5.28;3.83;;;;;;;;;;6276077;28;20059;-78
2022/07/14 18:25:22;;;;;;;5.82;4.28;;;;;;;;;;6275248;28;20059;-75
2022/07/14 18:28:25;;;;;;;7.07;3.70;;;;;;;;;;6275627;28;20328;-76
2022/07/14 18:31:27;;;;;;;4.18;3.58;;;;;;;;;;6272269;28;20064;-76
2022/07/14 18:34:29;;;;;;;6.63;3.67;;;;;;;;;;6276136;28;20117;-74
2022/07/14 18:37:31;;;;;;;4.45;3.72;;;;;;;;;;6272600;28;20153;-72
2022/07/14 18:40:33;;;;;;;5.80;3.80;;;;;;;;;;6274715;28;20059;-76
2022/07/14 18:43:36;;;;;;;6.07;3.83;;;;;;;;;;6274302;28;20053;-73
2022/07/14 18:46:37;;;;;;;4.88;3.70;;;;;;;;;;6274862;28;20053;-74